Time;durP1;ratioP1;P1;durP2;ratioP2;P2;SDS_P1;SDS_P2;PMS_P1;PMS_P2;Temp;Humidity;BMP_temperature;BMP_pressure;BME280_temperature;BME280_humidity;BME280_pressure;Samples;Min_cycle;Max_cycle;Signal;HPM_P1;HPM_P2
2021/09/23 00:00:11;;;;;;;4.37;3.37;;;;;;;;;;4448558;32;20334;-53
2021/09/23 00:05:16;;;;;;;3.17;2.77;;;;;;;;;;4442503;32;20315;-53
2021/09/23 00:07:42;;;;;;;7.93;3.50;;;;;;;;;;4447281;32;20706;-53
2021/09/23 00:10:11;;;;;;;5.53;3.47;;;;;;;;;;4449079;32;20306;-53
2021/09/23 00:12:36;;;;;;;4.23;3.17;;;;;;;;;;4446467;32;20281;-53
2021/09/23 00:15:03;;;;;;;4.17;3.07;;;;;;;;;;4441219;32;20280;-55
2021/09/23 00:17:29;;;;;;;6.23;3.83;;;;;;;;;;4443179;32;20235;-55
2021/09/23 00:19:54;;;;;;;4.13;3.17;;;;;;;;;;4448725;32;20296;-56
2021/09/23 00:22:20;;;;;;;4.13;3.53;;;;;;;;;;4448167;32;20220;-55
2021/09/23 00:24:45;;;;;;;4.30;3.17;;;;;;;;;;4444508;32;20298;-55
2021/09/23 00:27:11;;;;;;;5.63;3.63;;;;;;;;;;4443742;32;20763;-55
2021/09/23 00:29:37;;;;;;;3.73;2.87;;;;;;;;;;4446774;32;20314;-54
2021/09/23 00:32:02;;;;;;;4.97;3.37;;;;;;;;;;4448304;32;20661;-54
2021/09/23 00:34:28;;;;;;;4.00;3.30;;;;;;;;;;4449172;32;20356;-55
2021/09/23 00:36:53;;;;;;;6.27;3.57;;;;;;;;;;4442617;32;20254;-54
2021/09/23 00:39:21;;;;;;;4.70;3.17;;;;;;;;;;4447946;32;20726;-54
2021/09/23 00:41:47;;;;;;;6.10;3.37;;;;;;;;;;4448144;32;20282;-54
2021/09/23 00:44:23;;;;;;;5.23;3.50;;;;;;;;;;4447089;32;20208;-54
2021/09/23 00:46:50;;;;;;;3.42;2.62;;;;;;;;;;4444159;32;20739;-54
2021/09/23 00:49:17;;;;;;;3.73;2.90;;;;;;;;;;4446385;32;20676;-54
2021/09/23 00:51:44;;;;;;;4.80;2.73;;;;;;;;;;4444403;32;20303;-54
2021/09/23 00:54:10;;;;;;;3.90;3.17;;;;;;;;;;4442796;32;20249;-54
2021/09/23 00:56:36;;;;;;;4.70;2.70;;;;;;;;;;4446919;32;20240;-53
2021/09/23 00:59:03;;;;;;;6.77;2.80;;;;;;;;;;4447077;32;20263;-53
2021/09/23 01:01:28;;;;;;;5.67;3.60;;;;;;;;;;4447489;32;20228;-53
2021/09/23 01:03:54;;;;;;;3.70;3.30;;;;;;;;;;4446978;32;20355;-53
2021/09/23 01:06:20;;;;;;;7.30;4.27;;;;;;;;;;4446247;32;20240;-53
2021/09/23 01:08:57;;;;;;;4.53;3.43;;;;;;;;;;4445122;32;20369;-53
2021/09/23 01:11:24;;;;;;;5.20;3.80;;;;;;;;;;4447517;32;20217;-53
2021/09/23 01:13:50;;;;;;;4.50;3.23;;;;;;;;;;4443478;32;20232;-53
2021/09/23 01:16:16;;;;;;;6.97;3.00;;;;;;;;;;4446084;32;20353;-53
2021/09/23 01:18:42;;;;;;;5.23;3.50;;;;;;;;;;4443939;32;20447;-54
2021/09/23 01:21:08;;;;;;;5.07;3.63;;;;;;;;;;4446385;32;20331;-53
2021/09/23 01:23:37;;;;;;;5.27;3.80;;;;;;;;;;4447586;32;20691;-52
2021/09/23 01:26:06;;;;;;;5.77;3.13;;;;;;;;;;4436570;32;20331;-53
2021/09/23 01:28:32;;;;;;;5.13;3.30;;;;;;;;;;4442745;32;20208;-53
2021/09/23 01:30:57;;;;;;;5.07;3.37;;;;;;;;;;4446916;32;20811;-53
2021/09/23 01:33:23;;;;;;;5.77;3.70;;;;;;;;;;4446352;32;20196;-52
2021/09/23 01:35:48;;;;;;;5.27;3.70;;;;;;;;;;4436525;32;20307;-53
2021/09/23 01:38:14;;;;;;;5.80;3.13;;;;;;;;;;4447002;32;20232;-53
2021/09/23 01:40:39;;;;;;;5.33;3.50;;;;;;;;;;4446628;32;20231;-53
2021/09/23 01:43:05;;;;;;;4.70;3.00;;;;;;;;;;4446421;32;20678;-53
2021/09/23 01:45:30;;;;;;;7.87;3.53;;;;;;;;;;4447230;32;20305;-52
2021/09/23 01:47:55;;;;;;;6.30;3.30;;;;;;;;;;4444600;32;20319;-52
2021/09/23 01:50:21;;;;;;;7.27;3.53;;;;;;;;;;4445257;32;20645;-54
2021/09/23 01:52:46;;;;;;;7.63;3.83;;;;;;;;;;4446015;32;20338;-53
2021/09/23 01:55:12;;;;;;;5.60;3.07;;;;;;;;;;4447500;32;20619;-52
2021/09/23 01:57:38;;;;;;;5.53;3.63;;;;;;;;;;4439434;32;20542;-54
2021/09/23 02:00:05;;;;;;;5.10;3.83;;;;;;;;;;4445609;32;20635;-54
2021/09/23 02:02:30;;;;;;;4.83;3.23;;;;;;;;;;4442792;32;20216;-53
2021/09/23 02:04:55;;;;;;;4.20;3.53;;;;;;;;;;4439559;32;20547;-54
2021/09/23 02:07:22;;;;;;;4.23;2.80;;;;;;;;;;4444839;32;20411;-53
2021/09/23 02:09:47;;;;;;;4.97;3.43;;;;;;;;;;4446366;32;20318;-53
2021/09/23 02:12:13;;;;;;;5.13;3.70;;;;;;;;;;4442847;32;20236;-53
2021/09/23 02:14:38;;;;;;;6.83;4.80;;;;;;;;;;4445556;32;20365;-53
2021/09/23 02:17:04;;;;;;;6.77;3.77;;;;;;;;;;4439246;32;20232;-55
2021/09/23 02:19:29;;;;;;;3.47;2.93;;;;;;;;;;4446405;32;20641;-53
2021/09/23 02:21:55;;;;;;;4.20;3.40;;;;;;;;;;4445156;32;20398;-53
2021/09/23 02:24:20;;;;;;;5.57;4.17;;;;;;;;;;4444609;32;20316;-55
2021/09/23 02:26:45;;;;;;;3.53;3.23;;;;;;;;;;4445669;32;20733;-53
2021/09/23 02:29:11;;;;;;;4.17;3.50;;;;;;;;;;4444926;32;20373;-53
2021/09/23 02:31:36;;;;;;;4.43;3.90;;;;;;;;;;4444207;32;20398;-53
2021/09/23 02:34:02;;;;;;;5.53;3.77;;;;;;;;;;4446705;32;20676;-53
2021/09/23 02:36:27;;;;;;;4.17;2.90;;;;;;;;;;4442139;32;20744;-53
2021/09/23 02:38:53;;;;;;;4.67;3.83;;;;;;;;;;4444483;32;20338;-54
2021/09/23 02:41:18;;;;;;;7.87;3.57;;;;;;;;;;4445503;32;20236;-52
2021/09/23 02:43:44;;;;;;;5.37;3.13;;;;;;;;;;4436309;32;20441;-52
2021/09/23 02:46:09;;;;;;;3.67;2.80;;;;;;;;;;4435279;32;20269;-52
2021/09/23 02:48:34;;;;;;;4.47;3.53;;;;;;;;;;4446058;32;20688;-52
2021/09/23 02:51:00;;;;;;;3.63;3.07;;;;;;;;;;4445030;32;20657;-52
2021/09/23 02:53:25;;;;;;;3.73;3.33;;;;;;;;;;4443346;32;20689;-52
2021/09/23 02:55:51;;;;;;;6.43;3.57;;;;;;;;;;4445703;32;20658;-52
2021/09/23 02:58:16;;;;;;;5.27;3.60;;;;;;;;;;4445096;32;20341;-53
2021/09/23 03:00:42;;;;;;;3.97;3.27;;;;;;;;;;4448085;32;20318;-53
2021/09/23 03:03:07;;;;;;;3.73;3.07;;;;;;;;;;4440207;32;20310;-53
2021/09/23 03:05:33;;;;;;;4.70;3.40;;;;;;;;;;4437444;32;20247;-53
2021/09/23 03:07:58;;;;;;;5.20;3.30;;;;;;;;;;4436854;32;20330;-54
2021/09/23 03:10:24;;;;;;;4.27;3.17;;;;;;;;;;4446175;32;20363;-53
2021/09/23 03:12:49;;;;;;;3.73;3.27;;;;;;;;;;4437114;32;20413;-53
2021/09/23 03:15:15;;;;;;;5.87;3.80;;;;;;;;;;4436814;32;20693;-53
2021/09/23 03:17:40;;;;;;;4.17;3.40;;;;;;;;;;4433744;32;20309;-53
2021/09/23 03:20:06;;;;;;;5.97;3.57;;;;;;;;;;4445587;32;20292;-53
2021/09/23 03:22:33;;;;;;;5.20;3.43;;;;;;;;;;4442891;32;20228;-53
2021/09/23 03:24:59;;;;;;;5.10;3.87;;;;;;;;;;4440523;32;20280;-55
2021/09/23 03:27:24;;;;;;;5.93;3.90;;;;;;;;;;4434195;32;20363;-53
2021/09/23 03:29:50;;;;;;;4.77;3.67;;;;;;;;;;4442173;32;20370;-55
2021/09/23 03:32:15;;;;;;;4.90;3.93;;;;;;;;;;4440552;32;20217;-53
2021/09/23 03:34:41;;;;;;;3.10;2.80;;;;;;;;;;4445520;32;20373;-54
2021/09/23 03:37:06;;;;;;;6.53;3.80;;;;;;;;;;4437176;32;20351;-54
2021/09/23 03:39:32;;;;;;;4.70;4.20;;;;;;;;;;4438913;32;20224;-55
2021/09/23 03:41:57;;;;;;;3.77;3.20;;;;;;;;;;4438212;32;20399;-55
2021/09/23 03:44:23;;;;;;;7.23;6.00;;;;;;;;;;4445850;32;20738;-55
2021/09/23 03:46:48;;;;;;;6.33;4.83;;;;;;;;;;4443850;32;20291;-55
2021/09/23 03:49:14;;;;;;;7.10;4.90;;;;;;;;;;4444756;32;20307;-53
2021/09/23 03:51:39;;;;;;;5.43;4.20;;;;;;;;;;4445558;32;20256;-53
2021/09/23 03:54:05;;;;;;;6.40;4.67;;;;;;;;;;4436170;32;20300;-53
2021/09/23 03:56:31;;;;;;;8.20;3.47;;;;;;;;;;4440074;32;20303;-53
2021/09/23 03:58:56;;;;;;;5.63;3.83;;;;;;;;;;4440152;32;20200;-53
2021/09/23 04:01:22;;;;;;;6.70;4.23;;;;;;;;;;4443751;32;20597;-53
2021/09/23 04:03:47;;;;;;;4.80;3.77;;;;;;;;;;4445691;32;20352;-53
2021/09/23 04:06:13;;;;;;;5.40;4.33;;;;;;;;;;4442894;32;20308;-54
2021/09/23 04:08:38;;;;;;;6.70;4.27;;;;;;;;;;4432938;32;20217;-54
2021/09/23 04:11:04;;;;;;;3.50;3.20;;;;;;;;;;4441832;32;20251;-54
2021/09/23 04:13:29;;;;;;;6.53;5.17;;;;;;;;;;4440577;32;20400;-54
2021/09/23 04:15:55;;;;;;;5.73;4.93;;;;;;;;;;4437977;32;20258;-54
2021/09/23 04:18:20;;;;;;;5.33;4.40;;;;;;;;;;4438010;32;20693;-54
2021/09/23 04:20:47;;;;;;;6.13;4.53;;;;;;;;;;4442922;32;20239;-54
2021/09/23 04:23:13;;;;;;;7.30;5.20;;;;;;;;;;4440758;32;20266;-54
2021/09/23 04:25:40;;;;;;;5.00;3.63;;;;;;;;;;4440469;32;20747;-52
2021/09/23 04:28:06;;;;;;;8.33;4.77;;;;;;;;;;4441402;32;20227;-52
2021/09/23 04:30:31;;;;;;;5.53;4.70;;;;;;;;;;4446319;32;20252;-52
2021/09/23 04:32:57;;;;;;;5.87;3.93;;;;;;;;;;4433737;32;20326;-55
2021/09/23 04:35:23;;;;;;;5.33;3.83;;;;;;;;;;4442950;32;20225;-54
2021/09/23 04:37:48;;;;;;;4.37;3.97;;;;;;;;;;4443094;32;20774;-54
2021/09/23 04:40:14;;;;;;;6.33;4.43;;;;;;;;;;4443128;32;20318;-54
2021/09/23 04:42:43;;;;;;;7.93;5.77;;;;;;;;;;4437526;32;20208;-53
2021/09/23 04:45:09;;;;;;;7.90;6.50;;;;;;;;;;4442097;32;20361;-54
2021/09/23 04:47:35;;;;;;;7.27;6.03;;;;;;;;;;4441284;32;20272;-54
2021/09/23 04:50:00;;;;;;;5.87;5.00;;;;;;;;;;4447005;32;20858;-54
2021/09/23 04:52:26;;;;;;;5.57;4.50;;;;;;;;;;4434258;32;20208;-55
2021/09/23 04:54:51;;;;;;;6.87;5.33;;;;;;;;;;4441882;32;20649;-55
2021/09/23 04:57:16;;;;;;;10.30;4.93;;;;;;;;;;4438665;32;20788;-56
2021/09/23 04:59:42;;;;;;;8.33;4.20;;;;;;;;;;4442447;32;20859;-55
2021/09/23 05:02:07;;;;;;;6.40;4.90;;;;;;;;;;4438770;32;20367;-55
2021/09/23 05:04:33;;;;;;;9.77;4.93;;;;;;;;;;4437100;32;20443;-54
2021/09/23 05:06:58;;;;;;;6.57;5.07;;;;;;;;;;4438320;32;20267;-54
2021/09/23 05:09:24;;;;;;;8.30;4.97;;;;;;;;;;4445788;32;20354;-54
2021/09/23 05:11:50;;;;;;;5.97;4.53;;;;;;;;;;4435470;32;20279;-55
2021/09/23 05:14:18;;;;;;;10.90;5.13;;;;;;;;;;4443933;32;20362;-54
2021/09/23 05:16:44;;;;;;;5.93;5.00;;;;;;;;;;4440198;32;20307;-55
2021/09/23 05:19:11;;;;;;;14.17;6.37;;;;;;;;;;4445756;32;20282;-55
2021/09/23 05:21:37;;;;;;;8.67;6.27;;;;;;;;;;4445251;32;20221;-55
2021/09/23 05:24:04;;;;;;;9.23;6.33;;;;;;;;;;4440686;32;20296;-54
2021/09/23 05:26:29;;;;;;;11.47;8.10;;;;;;;;;;4441138;32;20659;-54
2021/09/23 05:28:55;;;;;;;8.67;6.67;;;;;;;;;;4438578;32;20311;-54
2021/09/23 05:31:20;;;;;;;6.63;5.10;;;;;;;;;;4441747;32;20649;-55
2021/09/23 05:33:45;;;;;;;10.50;5.60;;;;;;;;;;4436902;32;20617;-53
2021/09/23 05:36:12;;;;;;;13.33;5.17;;;;;;;;;;4440058;32;20277;-54
2021/09/23 05:38:37;;;;;;;28.17;8.00;;;;;;;;;;4447462;32;20381;-55
2021/09/23 05:41:02;;;;;;;9.80;5.60;;;;;;;;;;4435504;32;20378;-54
2021/09/23 05:43:28;;;;;;;6.67;5.33;;;;;;;;;;4443321;32;20338;-54
2021/09/23 05:45:54;;;;;;;14.47;6.27;;;;;;;;;;4433648;32;20544;-54
2021/09/23 05:48:21;;;;;;;9.67;6.20;;;;;;;;;;4443954;32;20236;-54
2021/09/23 05:50:47;;;;;;;9.40;6.83;;;;;;;;;;4444583;32;20601;-55
2021/09/23 05:53:12;;;;;;;8.43;5.90;;;;;;;;;;4441570;32;20310;-55
2021/09/23 05:55:39;;;;;;;11.60;6.03;;;;;;;;;;4436770;32;20337;-53
2021/09/23 05:58:05;;;;;;;7.27;5.90;;;;;;;;;;4444520;32;20331;-54
2021/09/23 06:00:31;;;;;;;9.53;5.27;;;;;;;;;;4446425;32;20274;-54
2021/09/23 06:02:56;;;;;;;13.90;5.83;;;;;;;;;;4438873;32;20278;-53
2021/09/23 06:05:22;;;;;;;8.20;6.77;;;;;;;;;;4439030;32;20401;-54
2021/09/23 06:07:47;;;;;;;9.57;6.50;;;;;;;;;;4430717;32;20347;-55
2021/09/23 06:10:13;;;;;;;10.37;7.60;;;;;;;;;;4443877;32;20645;-55
2021/09/23 06:12:39;;;;;;;20.93;8.60;;;;;;;;;;4443178;32;20280;-54
2021/09/23 06:15:06;;;;;;;17.20;7.53;;;;;;;;;;4438500;32;20272;-54
2021/09/23 06:17:32;;;;;;;13.43;6.97;;;;;;;;;;4436274;32;20280;-55
2021/09/23 06:19:57;;;;;;;15.87;6.17;;;;;;;;;;4444029;32;20822;-55
2021/09/23 06:22:23;;;;;;;5.70;4.63;;;;;;;;;;4444901;32;20694;-56
2021/09/23 06:24:48;;;;;;;7.87;4.97;;;;;;;;;;4445122;32;20709;-54
2021/09/23 06:27:14;;;;;;;8.63;4.97;;;;;;;;;;4436024;32;20290;-54
2021/09/23 06:29:39;;;;;;;5.13;4.37;;;;;;;;;;4442242;32;20325;-54
2021/09/23 06:32:05;;;;;;;5.37;4.37;;;;;;;;;;4441721;32;20339;-54
2021/09/23 06:34:31;;;;;;;6.73;4.47;;;;;;;;;;4444654;32;20715;-53
2021/09/23 06:36:56;;;;;;;9.10;4.60;;;;;;;;;;4440796;32;20376;-55
2021/09/23 06:39:22;;;;;;;6.80;5.00;;;;;;;;;;4440233;32;20376;-54
2021/09/23 06:41:47;;;;;;;5.73;3.63;;;;;;;;;;4443782;32;20382;-54
2021/09/23 06:44:13;;;;;;;5.93;3.80;;;;;;;;;;4446178;32;20730;-53
2021/09/23 06:46:39;;;;;;;13.80;4.20;;;;;;;;;;4441746;32;20268;-54
2021/09/23 06:49:05;;;;;;;5.77;3.33;;;;;;;;;;4437673;32;20744;-55
2021/09/23 06:51:30;;;;;;;4.70;3.03;;;;;;;;;;4431982;32;20243;-53
2021/09/23 06:53:57;;;;;;;6.00;3.27;;;;;;;;;;4440082;32;20267;-57
2021/09/23 06:56:23;;;;;;;6.57;4.33;;;;;;;;;;4440654;32;20609;-54
2021/09/23 06:58:48;;;;;;;7.20;4.40;;;;;;;;;;4444758;32;20247;-54
2021/09/23 07:01:14;;;;;;;5.57;4.03;;;;;;;;;;4433727;32;20298;-54
2021/09/23 07:03:39;;;;;;;4.40;3.90;;;;;;;;;;4443354;32;20234;-56
2021/09/23 07:06:05;;;;;;;6.67;4.37;;;;;;;;;;4438625;32;20612;-54
2021/09/23 07:08:31;;;;;;;7.03;3.87;;;;;;;;;;4434505;32;20299;-54
2021/09/23 07:10:56;;;;;;;7.13;4.20;;;;;;;;;;4434841;32;20410;-53
2021/09/23 07:13:22;;;;;;;5.37;3.43;;;;;;;;;;4442712;32;20309;-53
2021/09/23 07:15:47;;;;;;;3.97;3.37;;;;;;;;;;4435576;32;20256;-54
2021/09/23 07:18:13;;;;;;;6.27;3.50;;;;;;;;;;4440824;32;20412;-54
2021/09/23 07:20:38;;;;;;;3.45;3.05;;;;;;;;;;4442476;32;20358;-54
2021/09/23 07:23:04;;;;;;;4.27;3.47;;;;;;;;;;4431700;32;20266;-55
2021/09/23 07:25:30;;;;;;;4.93;3.63;;;;;;;;;;4445218;32;20551;-54
2021/09/23 07:27:56;;;;;;;8.48;3.62;;;;;;;;;;4445946;32;20356;-55
2021/09/23 07:30:22;;;;;;;9.30;4.97;;;;;;;;;;4443984;32;20319;-54
2021/09/23 07:32:50;;;;;;;8.07;4.20;;;;;;;;;;4440909;32;20313;-56
2021/09/23 07:35:15;;;;;;;10.97;3.33;;;;;;;;;;4446032;32;20208;-54
2021/09/23 07:37:41;;;;;;;6.03;3.77;;;;;;;;;;4445780;32;20255;-55
2021/09/23 07:40:09;;;;;;;5.80;4.27;;;;;;;;;;4446364;32;20244;-54
2021/09/23 07:42:35;;;;;;;4.27;3.33;;;;;;;;;;4430128;32;20386;-55
2021/09/23 07:45:02;;;;;;;4.60;4.10;;;;;;;;;;4440268;32;20287;-55
2021/09/23 07:47:27;;;;;;;3.83;3.47;;;;;;;;;;4444891;32;20692;-53
2021/09/23 07:49:53;;;;;;;6.00;4.30;;;;;;;;;;4444302;32;20387;-55
2021/09/23 07:52:19;;;;;;;5.77;4.63;;;;;;;;;;4437185;32;20257;-55
2021/09/23 07:54:44;;;;;;;6.97;4.53;;;;;;;;;;4449128;32;20299;-57
2021/09/23 07:57:11;;;;;;;6.20;4.67;;;;;;;;;;4443999;32;20726;-54
2021/09/23 07:59:37;;;;;;;4.87;4.20;;;;;;;;;;4441534;32;20235;-55
2021/09/23 08:02:03;;;;;;;6.10;4.43;;;;;;;;;;4445306;32;20759;-54
2021/09/23 08:04:28;;;;;;;8.07;5.13;;;;;;;;;;4443297;32;20270;-54
2021/09/23 08:06:54;;;;;;;6.40;4.53;;;;;;;;;;4439991;32;20232;-54
2021/09/23 08:09:19;;;;;;;11.53;4.23;;;;;;;;;;4443916;32;20856;-54
2021/09/23 08:11:46;;;;;;;7.93;4.97;;;;;;;;;;4443635;32;20346;-54
2021/09/23 08:14:12;;;;;;;11.87;4.63;;;;;;;;;;4440680;32;20640;-55
2021/09/23 08:16:37;;;;;;;5.40;3.53;;;;;;;;;;4439587;32;20561;-54
2021/09/23 08:19:03;;;;;;;4.80;3.67;;;;;;;;;;4446083;32;20301;-54
2021/09/23 08:21:28;;;;;;;6.17;4.07;;;;;;;;;;4443629;32;20332;-54
2021/09/23 08:23:54;;;;;;;9.27;4.47;;;;;;;;;;4447393;32;20342;-55
2021/09/23 08:26:23;;;;;;;8.17;5.13;;;;;;;;;;4445270;32;20570;-54
2021/09/23 08:28:48;;;;;;;6.95;5.07;;;;;;;;;;4446830;32;20314;-54
2021/09/23 08:31:16;;;;;;;5.70;4.27;;;;;;;;;;4438209;32;20278;-53
2021/09/23 08:33:42;;;;;;;4.77;3.77;;;;;;;;;;4447443;32;20287;-54
2021/09/23 08:36:07;;;;;;;5.43;4.27;;;;;;;;;;4440350;32;20710;-54
2021/09/23 08:38:33;;;;;;;5.07;3.97;;;;;;;;;;4437545;32;20252;-55
2021/09/23 08:40:58;;;;;;;5.17;4.60;;;;;;;;;;4435474;32;20900;-54
2021/09/23 08:43:23;;;;;;;4.75;3.75;;;;;;;;;;4441440;32;20362;-56
2021/09/23 08:45:53;;;;;;;8.70;3.97;;;;;;;;;;4446966;32;20270;-54
2021/09/23 08:48:20;;;;;;;7.25;4.07;;;;;;;;;;4436843;32;20272;-54
2021/09/23 08:50:46;;;;;;;7.50;4.68;;;;;;;;;;4442698;32;20386;-54
2021/09/23 08:53:11;;;;;;;5.00;3.78;;;;;;;;;;4444221;32;20348;-54
2021/09/23 08:55:37;;;;;;;4.78;4.35;;;;;;;;;;4443935;32;20415;-53
2021/09/23 08:58:05;;;;;;;6.78;4.18;;;;;;;;;;4440663;32;20280;-54
2021/09/23 09:00:32;;;;;;;8.48;4.70;;;;;;;;;;4436294;32;20697;-53
2021/09/23 09:03:01;;;;;;;7.28;3.80;;;;;;;;;;4433848;32;20643;-54
2021/09/23 09:05:26;;;;;;;4.75;4.25;;;;;;;;;;4444491;32;20240;-53
2021/09/23 09:08:06;;;;;;;4.05;3.65;;;;;;;;;;4437784;32;20601;-53
2021/09/23 09:10:33;;;;;;;4.10;3.37;;;;;;;;;;4437581;32;20220;-53
2021/09/23 09:13:04;;;;;;;5.28;3.62;;;;;;;;;;4444706;32;20598;-53
2021/09/23 09:15:38;;;;;;;6.78;4.07;;;;;;;;;;4440632;32;20290;-54
2021/09/23 09:18:21;;;;;;;6.95;5.35;;;;;;;;;;4440177;32;20228;-55
2021/09/23 09:21:04;;;;;;;13.43;5.55;;;;;;;;;;4425149;32;20235;-53
2021/09/23 09:23:58;;;;;;;5.47;3.87;;;;;;;;;;4442282;32;21139;-56
2021/09/23 09:26:39;;;;;;;4.50;3.78;;;;;;;;;;4437419;32;20312;-56
2021/09/23 09:29:07;;;;;;;4.97;3.72;;;;;;;;;;4426189;32;20275;-53
2021/09/23 09:31:34;;;;;;;5.82;3.70;;;;;;;;;;4445883;32;20252;-55
2021/09/23 09:34:01;;;;;;;4.80;3.78;;;;;;;;;;4445351;32;20285;-54
2021/09/23 09:36:39;;;;;;;4.32;3.67;;;;;;;;;;4446087;32;20294;-54
2021/09/23 09:39:11;;;;;;;4.10;3.30;;;;;;;;;;4445125;32;20346;-54
2021/09/23 09:41:40;;;;;;;4.68;3.20;;;;;;;;;;4445170;32;20276;-55
2021/09/23 09:44:10;;;;;;;8.63;2.85;;;;;;;;;;4443708;32;20258;-53
2021/09/23 09:46:51;;;;;;;7.43;3.70;;;;;;;;;;4433743;32;20295;-54
2021/09/23 09:49:19;;;;;;;4.47;3.83;;;;;;;;;;4441964;32;20235;-54
2021/09/23 09:51:54;;;;;;;4.55;3.40;;;;;;;;;;4444939;32;20316;-54
2021/09/23 09:54:21;;;;;;;4.43;3.83;;;;;;;;;;4433290;32;20266;-54
2021/09/23 09:56:55;;;;;;;4.12;3.37;;;;;;;;;;4437447;32;20334;-57
2021/09/23 09:59:20;;;;;;;7.68;3.50;;;;;;;;;;4436516;32;20338;-53
2021/09/23 10:01:50;;;;;;;4.47;3.70;;;;;;;;;;4445123;32;20248;-54
2021/09/23 10:04:17;;;;;;;7.07;4.25;;;;;;;;;;4444274;32;20308;-54
2021/09/23 10:06:44;;;;;;;4.03;3.62;;;;;;;;;;4442842;32;20287;-55
2021/09/23 10:09:11;;;;;;;6.97;3.47;;;;;;;;;;4440555;32;20253;-54
2021/09/23 10:11:43;;;;;;;3.42;2.70;;;;;;;;;;4442350;32;20259;-54
2021/09/23 10:14:10;;;;;;;3.55;2.75;;;;;;;;;;4439261;32;20291;-54
2021/09/23 10:16:37;;;;;;;3.22;2.92;;;;;;;;;;4446442;32;20232;-54
2021/09/23 10:19:03;;;;;;;4.93;3.47;;;;;;;;;;4445225;32;20208;-54
2021/09/23 10:21:29;;;;;;;4.72;3.33;;;;;;;;;;4445849;32;20246;-53
2021/09/23 10:23:55;;;;;;;3.08;2.62;;;;;;;;;;4443071;32;20363;-54
2021/09/23 10:26:25;;;;;;;3.58;2.95;;;;;;;;;;4434107;32;20294;-53
2021/09/23 10:28:54;;;;;;;3.33;3.03;;;;;;;;;;4439124;32;20331;-53
2021/09/23 10:31:21;;;;;;;4.32;3.20;;;;;;;;;;4436297;32;20244;-53
2021/09/23 10:33:48;;;;;;;3.25;2.53;;;;;;;;;;4440722;32;20271;-54
2021/09/23 10:36:16;;;;;;;4.47;2.97;;;;;;;;;;4437337;32;20243;-54
2021/09/23 10:38:43;;;;;;;2.97;2.65;;;;;;;;;;4443943;32;20263;-53
2021/09/23 10:41:13;;;;;;;3.12;2.80;;;;;;;;;;4436329;32;20252;-54
2021/09/23 10:43:40;;;;;;;4.97;3.15;;;;;;;;;;4446087;32;20267;-54
2021/09/23 10:46:06;;;;;;;4.70;3.30;;;;;;;;;;4446253;32;20291;-53
2021/09/23 10:48:36;;;;;;;3.55;3.05;;;;;;;;;;4442609;32;20630;-54
2021/09/23 10:51:05;;;;;;;3.53;2.83;;;;;;;;;;4439847;32;20349;-54
2021/09/23 10:53:33;;;;;;;3.12;2.50;;;;;;;;;;4446237;32;20208;-53
2021/09/23 10:56:07;;;;;;;2.60;2.15;;;;;;;;;;4436868;32;20312;-53
2021/09/23 10:58:33;;;;;;;3.70;2.97;;;;;;;;;;4442783;32;20576;-53
2021/09/23 11:01:00;;;;;;;3.15;2.42;;;;;;;;;;4435995;32;20548;-53
2021/09/23 11:03:38;;;;;;;4.50;2.90;;;;;;;;;;4441031;32;20204;-53
2021/09/23 11:06:09;;;;;;;2.53;2.28;;;;;;;;;;4434289;32;20319;-54
2021/09/23 11:08:41;;;;;;;3.08;2.78;;;;;;;;;;4444377;32;20228;-54
2021/09/23 11:11:09;;;;;;;2.87;2.60;;;;;;;;;;4441632;32;20748;-54
2021/09/23 11:13:38;;;;;;;3.42;2.60;;;;;;;;;;4443150;32;20376;-53
2021/09/23 11:16:06;;;;;;;2.80;2.47;;;;;;;;;;4446403;32;20341;-54
2021/09/23 11:18:33;;;;;;;2.55;2.30;;;;;;;;;;4441996;32;20247;-54
2021/09/23 11:21:00;;;;;;;7.53;2.62;;;;;;;;;;4443401;32;20236;-53
2021/09/23 11:23:27;;;;;;;2.12;1.80;;;;;;;;;;4445069;32;20223;-53
2021/09/23 11:25:54;;;;;;;3.10;2.55;;;;;;;;;;4436288;32;20252;-53
2021/09/23 11:28:22;;;;;;;1.95;1.67;;;;;;;;;;4445470;32;20267;-53
2021/09/23 11:30:50;;;;;;;2.62;2.35;;;;;;;;;;4444464;32;20673;-52
2021/09/23 11:33:17;;;;;;;3.47;2.65;;;;;;;;;;4450295;32;20236;-52
2021/09/23 11:35:45;;;;;;;3.60;2.55;;;;;;;;;;4439421;32;20268;-54
2021/09/23 11:38:14;;;;;;;2.80;2.30;;;;;;;;;;4438743;32;20244;-53
2021/09/23 11:40:42;;;;;;;5.28;2.20;;;;;;;;;;4438980;32;20251;-53
2021/09/23 11:43:11;;;;;;;2.17;1.98;;;;;;;;;;4445181;32;20413;-53
2021/09/23 11:45:43;;;;;;;2.58;2.37;;;;;;;;;;4443236;32;20217;-53
2021/09/23 11:48:17;;;;;;;3.30;2.33;;;;;;;;;;4447094;32;20563;-53
2021/09/23 11:50:48;;;;;;;4.82;2.25;;;;;;;;;;4439641;32;20658;-53
2021/09/23 11:53:23;;;;;;;3.62;2.35;;;;;;;;;;4448821;32;20271;-53
2021/09/23 11:55:57;;;;;;;2.47;2.20;;;;;;;;;;4446772;32;20706;-53
2021/09/23 11:58:24;;;;;;;2.20;2.00;;;;;;;;;;4449587;32;20265;-54
2021/09/23 12:00:51;;;;;;;4.22;2.10;;;;;;;;;;4448969;32;20579;-53
2021/09/23 12:03:18;;;;;;;2.72;2.42;;;;;;;;;;4445834;32;20640;-53
2021/09/23 12:05:45;;;;;;;2.33;1.95;;;;;;;;;;4445608;32;20825;-54
2021/09/23 12:08:15;;;;;;;2.90;1.90;;;;;;;;;;4444423;32;20229;-53
2021/09/23 12:10:46;;;;;;;2.33;2.05;;;;;;;;;;4448821;32;20234;-53
2021/09/23 12:13:16;;;;;;;2.20;1.80;;;;;;;;;;4445122;32;20251;-54
2021/09/23 12:15:49;;;;;;;2.70;2.20;;;;;;;;;;4447567;32;20380;-53
2021/09/23 12:18:15;;;;;;;2.50;1.80;;;;;;;;;;4445454;32;20244;-54
2021/09/23 12:20:46;;;;;;;2.67;1.98;;;;;;;;;;4448182;32;20286;-54
2021/09/23 12:23:29;;;;;;;2.30;2.10;;;;;;;;;;4448485;32;20239;-54
2021/09/23 12:26:21;;;;;;;2.90;1.87;;;;;;;;;;4440845;32;20285;-53
2021/09/23 12:28:49;;;;;;;7.72;2.22;;;;;;;;;;4438677;32;20323;-55
2021/09/23 12:31:17;;;;;;;3.25;2.03;;;;;;;;;;4439769;32;20251;-53
2021/09/23 12:33:55;;;;;;;2.30;2.03;;;;;;;;;;4441355;32;20205;-53
2021/09/23 12:36:30;;;;;;;2.72;1.85;;;;;;;;;;4436069;32;20558;-53
2021/09/23 12:39:23;;;;;;;2.70;1.87;;;;;;;;;;4447202;32;20262;-53
2021/09/23 12:41:51;;;;;;;2.97;2.03;;;;;;;;;;4446152;32;20366;-53
2021/09/23 12:44:28;;;;;;;2.42;2.08;;;;;;;;;;4448546;32;20231;-53
2021/09/23 12:47:30;;;;;;;2.35;1.65;;;;;;;;;;4448983;32;20244;-53
2021/09/23 12:49:57;;;;;;;3.30;2.30;;;;;;;;;;4448990;32;20691;-53
2021/09/23 12:52:30;;;;;;;2.40;1.67;;;;;;;;;;4446426;32;20232;-52
2021/09/23 12:54:58;;;;;;;2.08;1.83;;;;;;;;;;4441023;32;20224;-53
2021/09/23 12:57:30;;;;;;;1.92;1.55;;;;;;;;;;4445816;32;20225;-54
2021/09/23 13:00:07;;;;;;;2.67;1.85;;;;;;;;;;4438437;32;20237;-53
2021/09/23 13:02:32;;;;;;;2.28;1.60;;;;;;;;;;4432510;32;20212;-54
2021/09/23 13:05:09;;;;;;;2.55;1.60;;;;;;;;;;4445958;32;20621;-54
2021/09/23 13:07:49;;;;;;;2.20;1.73;;;;;;;;;;4448379;32;20333;-54
2021/09/23 13:10:16;;;;;;;2.53;1.80;;;;;;;;;;4449274;32;20234;-54
2021/09/23 13:13:01;;;;;;;3.12;1.90;;;;;;;;;;4441614;32;20292;-53
2021/09/23 13:15:38;;;;;;;1.92;1.73;;;;;;;;;;4441309;32;20274;-53
2021/09/23 13:18:16;;;;;;;2.20;1.70;;;;;;;;;;4448173;32;20303;-54
2021/09/23 13:21:03;;;;;;;7.28;1.80;;;;;;;;;;4439888;32;20248;-53
2021/09/23 13:23:38;;;;;;;2.92;1.73;;;;;;;;;;4447727;32;20204;-53
2021/09/23 13:26:06;;;;;;;1.87;1.50;;;;;;;;;;4443369;32;20698;-54
2021/09/23 13:28:34;;;;;;;2.80;2.20;;;;;;;;;;4448756;32;20237;-54
2021/09/23 13:31:06;;;;;;;1.98;1.77;;;;;;;;;;4447886;32;20232;-54
2021/09/23 13:33:33;;;;;;;2.17;1.52;;;;;;;;;;4448084;32;20696;-55
2021/09/23 13:36:00;;;;;;;2.10;1.65;;;;;;;;;;4446419;32;20365;-55
2021/09/23 13:38:27;;;;;;;4.32;1.65;;;;;;;;;;4448438;32;20213;-55
2021/09/23 13:40:54;;;;;;;1.67;1.40;;;;;;;;;;4447712;32;20677;-54
2021/09/23 13:43:20;;;;;;;1.87;1.65;;;;;;;;;;4448565;32;20626;-55
2021/09/23 13:45:46;;;;;;;2.72;1.70;;;;;;;;;;4448177;32;20232;-54
2021/09/23 13:48:12;;;;;;;1.75;1.40;;;;;;;;;;4447404;32;20265;-55
2021/09/23 13:50:38;;;;;;;2.10;1.80;;;;;;;;;;4442121;32;20436;-54
2021/09/23 13:53:04;;;;;;;2.05;1.67;;;;;;;;;;4447645;32;20765;-56
2021/09/23 13:55:29;;;;;;;2.87;1.85;;;;;;;;;;4437545;32;20300;-54
2021/09/23 13:57:55;;;;;;;3.22;1.70;;;;;;;;;;4432266;32;20253;-53
2021/09/23 14:00:20;;;;;;;3.62;1.70;;;;;;;;;;4431102;32;20273;-54
2021/09/23 14:02:47;;;;;;;2.30;1.85;;;;;;;;;;4443635;32;20236;-55
2021/09/23 14:05:12;;;;;;;1.77;1.65;;;;;;;;;;4445959;32;20322;-54
2021/09/23 14:07:39;;;;;;;2.00;1.80;;;;;;;;;;4444161;32;20849;-56
2021/09/23 14:10:07;;;;;;;2.70;1.60;;;;;;;;;;4442286;32;20240;-54
2021/09/23 14:12:33;;;;;;;1.73;1.25;;;;;;;;;;4443532;32;20662;-54
2021/09/23 14:14:59;;;;;;;2.08;1.67;;;;;;;;;;4444494;32;20284;-54
2021/09/23 14:17:24;;;;;;;2.20;1.60;;;;;;;;;;4447543;32;20212;-54
2021/09/23 14:19:50;;;;;;;1.60;1.50;;;;;;;;;;4441332;32;20364;-56
2021/09/23 14:22:16;;;;;;;2.15;1.87;;;;;;;;;;4447107;32;20599;-53
2021/09/23 14:24:41;;;;;;;1.83;1.60;;;;;;;;;;4445397;32;20314;-54
2021/09/23 14:27:07;;;;;;;2.47;1.80;;;;;;;;;;4445479;32;20346;-53
2021/09/23 14:29:37;;;;;;;5.68;1.60;;;;;;;;;;4446923;32;20275;-54
2021/09/23 14:32:04;;;;;;;1.85;1.45;;;;;;;;;;4446254;32;20260;-54
2021/09/23 14:34:30;;;;;;;3.30;1.58;;;;;;;;;;4445292;32;20663;-54
2021/09/23 14:36:55;;;;;;;3.30;2.35;;;;;;;;;;4446741;32;20256;-53
2021/09/23 14:39:20;;;;;;;4.18;1.87;;;;;;;;;;4446299;32;20323;-54
2021/09/23 14:41:46;;;;;;;1.87;1.67;;;;;;;;;;4446954;32;20670;-55
2021/09/23 14:44:12;;;;;;;3.67;1.90;;;;;;;;;;4444122;32;20876;-55
2021/09/23 14:46:37;;;;;;;4.43;1.95;;;;;;;;;;4430858;32;20354;-54